Time;durP1;ratioP1;P1;durP2;ratioP2;P2;SDS_P1;SDS_P2;PMS_P1;PMS_P2;Temp;Humidity;BMP_temperature;BMP_pressure;BME280_temperature;BME280_humidity;BME280_pressure;Samples;Min_cycle;Max_cycle;Signal;HPM_P1;HPM_P2
2023/12/26 00:00:36;;;;;;;1.97;1.23;;;;;;;10.20;68.51;99975.94;4999220;28;97107;-55
2023/12/26 00:03:06;;;;;;;0.70;0.70;;;;;;;10.20;68.51;99969.66;4997693;28;96892;-55
2023/12/26 00:05:31;;;;;;;0.90;0.90;;;;;;;10.20;68.54;99969.66;4994771;28;97279;-55
2023/12/26 00:07:57;;;;;;;0.60;0.60;;;;;;;10.20;68.54;99973.16;4996388;28;97277;-55
2023/12/26 00:10:22;;;;;;;0.50;0.50;;;;;;;10.22;68.46;99964.31;4995875;28;96707;-55
2023/12/26 00:12:48;;;;;;;0.60;0.50;;;;;;;10.21;68.44;99958.06;4994649;28;98799;-55
2023/12/26 00:15:13;;;;;;;0.60;0.50;;;;;;;10.21;68.56;99954.56;4998601;28;97686;-55
2023/12/26 00:17:39;;;;;;;1.80;0.50;;;;;;;10.19;68.49;99960.63;4999915;28;97317;-55
2023/12/26 00:20:05;;;;;;;0.83;0.50;;;;;;;10.18;68.69;99948.06;4998783;28;99558;-55
2023/12/26 00:22:30;;;;;;;0.70;0.40;;;;;;;10.17;68.69;99937.56;4994549;28;97832;-55
2023/12/26 00:24:56;;;;;;;0.60;0.40;;;;;;;10.20;68.65;99940.00;4996694;28;97138;-55
2023/12/26 00:27:21;;;;;;;0.60;0.50;;;;;;;10.20;68.58;99944.75;4997507;28;96978;-55
2023/12/26 00:29:47;;;;;;;0.60;0.47;;;;;;;10.21;68.66;99935.97;4996541;28;97167;-55
2023/12/26 00:32:12;;;;;;;1.47;0.67;;;;;;;10.22;68.64;99920.09;4995794;28;96742;-55
2023/12/26 00:34:37;;;;;;;0.50;0.40;;;;;;;10.23;68.63;99932.66;4995787;28;97172;-55
2023/12/26 00:37:03;;;;;;;0.80;0.43;;;;;;;10.25;68.72;99921.81;5001113;28;97093;-55
2023/12/26 00:39:28;;;;;;;0.50;0.30;;;;;;;10.25;68.54;99917.03;4994060;28;96828;-55
2023/12/26 00:41:54;;;;;;;1.27;0.40;;;;;;;10.27;68.59;99913.72;4994871;28;97533;-55
2023/12/26 00:44:19;;;;;;;0.53;0.40;;;;;;;10.29;68.47;99906.41;4997105;28;96992;-55
2023/12/26 00:46:46;;;;;;;2.40;0.40;;;;;;;10.29;68.45;99909.16;4999881;28;96750;-55
2023/12/26 00:49:12;;;;;;;0.50;0.30;;;;;;;10.31;68.45;99906.59;4995821;28;97555;-55
2023/12/26 00:51:37;;;;;;;4.60;0.30;;;;;;;10.33;68.40;99903.31;4997279;28;97403;-55
2023/12/26 00:54:03;;;;;;;0.60;0.40;;;;;;;10.32;68.42;99896.31;5000520;28;96861;-55
2023/12/26 00:56:28;;;;;;;0.60;0.50;;;;;;;10.30;68.41;99901.63;4997476;28;97690;-55
2023/12/26 00:58:54;;;;;;;0.50;0.30;;;;;;;10.28;68.60;99898.66;4996359;28;96936;-55
2023/12/26 01:01:19;;;;;;;0.50;0.30;;;;;;;10.28;68.46;99896.59;4996620;28;97217;-55
2023/12/26 01:03:45;;;;;;;1.83;0.30;;;;;;;10.29;68.58;99895.34;4997168;28;96969;-55
2023/12/26 01:06:10;;;;;;;0.63;0.40;;;;;;;10.29;68.59;99900.88;5000228;28;97120;-55
2023/12/26 01:08:35;;;;;;;0.50;0.40;;;;;;;10.31;68.53;99897.56;4995558;28;98174;-55
2023/12/26 01:11:01;;;;;;;0.50;0.30;;;;;;;10.30;68.51;99899.59;4995175;28;96827;-55
2023/12/26 01:13:30;;;;;;;0.50;0.30;;;;;;;10.33;68.46;99906.06;4995925;28;97335;-55
2023/12/26 01:15:55;;;;;;;0.50;0.30;;;;;;;10.33;68.46;99904.06;4997172;28;96729;-55
2023/12/26 01:18:20;;;;;;;0.50;0.40;;;;;;;10.35;68.49;99909.03;4994655;28;97382;-55
2023/12/26 01:20:46;;;;;;;0.60;0.40;;;;;;;10.35;68.42;99907.03;4993082;28;97357;-55
2023/12/26 01:23:11;;;;;;;0.80;0.40;;;;;;;10.35;68.37;99911.81;4995300;28;97140;-54
2023/12/26 01:25:37;;;;;;;0.53;0.30;;;;;;;10.35;68.43;99911.81;4996295;28;97225;-55
2023/12/26 01:28:02;;;;;;;1.97;0.50;;;;;;;10.35;68.42;99912.56;4994980;28;96589;-55
2023/12/26 01:30:28;;;;;;;1.80;0.40;;;;;;;10.33;68.58;99908.84;4994247;28;97508;-55
2023/12/26 01:32:54;;;;;;;1.33;0.53;;;;;;;10.33;68.64;99915.13;4996042;28;97261;-55
2023/12/26 01:35:19;;;;;;;0.70;0.47;;;;;;;10.33;68.57;99903.31;4995967;28;96676;-55
2023/12/26 01:37:45;;;;;;;0.60;0.40;;;;;;;10.33;68.54;99904.06;4995450;28;97225;-55
2023/12/26 01:40:11;;;;;;;1.37;0.60;;;;;;;10.33;68.65;99904.06;4995572;28;97315;-55
2023/12/26 01:42:37;;;;;;;0.90;0.30;;;;;;;10.35;68.66;99903.50;4994738;28;97184;-55
2023/12/26 01:45:04;;;;;;;0.60;0.30;;;;;;;10.36;68.46;99907.78;4997405;28;97482;-55
2023/12/26 01:47:29;;;;;;;0.60;0.40;;;;;;;10.32;68.44;99910.13;4995143;28;96969;-55
2023/12/26 01:49:55;;;;;;;0.50;0.30;;;;;;;10.32;68.62;99907.34;4994876;28;97803;-55
2023/12/26 01:52:21;;;;;;;0.50;0.40;;;;;;;10.33;68.38;99906.06;4993541;28;97721;-55
2023/12/26 01:54:47;;;;;;;1.10;0.40;;;;;;;10.31;68.64;99909.38;4992304;28;96859;-55
2023/12/26 01:57:12;;;;;;;1.53;0.30;;;;;;;10.29;68.67;99908.41;4997986;28;97732;-55
2023/12/26 01:59:38;;;;;;;0.60;0.40;;;;;;;10.31;68.76;99905.84;4992087;28;97889;-55
2023/12/26 02:02:05;;;;;;;1.00;0.30;;;;;;;10.31;68.52;99906.59;4993160;28;97122;-55
2023/12/26 02:04:31;;;;;;;0.63;0.30;;;;;;;10.31;68.62;99912.13;4990395;28;97095;-55
2023/12/26 02:06:57;;;;;;;0.50;0.40;;;;;;;10.31;68.56;99905.84;4994807;28;97123;-55
2023/12/26 02:09:24;;;;;;;1.27;0.30;;;;;;;10.30;68.62;99912.69;4996059;28;98081;-55
2023/12/26 02:11:51;;;;;;;2.50;0.40;;;;;;;10.28;68.68;99901.41;4995619;28;97097;-55
2023/12/26 02:14:17;;;;;;;0.50;0.30;;;;;;;10.24;68.75;99907.25;4993508;28;97079;-55
2023/12/26 02:16:44;;;;;;;0.60;0.30;;;;;;;10.22;68.77;99912.56;4993490;28;97391;-55
2023/12/26 02:19:10;;;;;;;0.60;0.40;;;;;;;10.22;68.86;99917.34;4994450;28;96789;-55
2023/12/26 02:21:35;;;;;;;0.87;0.40;;;;;;;10.21;69.05;99913.84;4994602;28;98613;-55
2023/12/26 02:24:01;;;;;;;2.73;0.40;;;;;;;10.21;68.76;99913.09;4991306;28;97332;-55
2023/12/26 02:26:28;;;;;;;0.90;0.40;;;;;;;10.20;68.87;99922.66;4995609;28;96916;-55
2023/12/26 02:28:56;;;;;;;1.23;0.43;;;;;;;10.19;68.74;99910.88;4991237;28;97384;-55
2023/12/26 02:31:23;;;;;;;0.97;0.40;;;;;;;10.18;68.82;99911.38;4992495;28;98650;-55
2023/12/26 02:33:48;;;;;;;0.60;0.50;;;;;;;10.17;68.67;99918.22;4992464;28;96583;-55
2023/12/26 02:36:14;;;;;;;0.50;0.40;;;;;;;10.13;68.70;99912.25;4994147;28;98387;-55
2023/12/26 02:38:40;;;;;;;0.50;0.33;;;;;;;10.13;68.79;99912.97;4992490;28;98743;-55
2023/12/26 02:41:06;;;;;;;0.80;0.50;;;;;;;10.06;68.77;99919.16;4998447;28;97045;-55
2023/12/26 02:43:33;;;;;;;0.60;0.50;;;;;;;10.11;68.80;99912.75;4996752;28;96694;-55
2023/12/26 02:45:58;;;;;;;0.80;0.70;;;;;;;10.11;68.90;99917.56;4998985;28;97197;-55
2023/12/26 02:48:24;;;;;;;0.80;0.67;;;;;;;10.11;68.83;99926.59;4995085;28;96785;-55
2023/12/26 02:50:50;;;;;;;0.97;0.70;;;;;;;10.10;68.88;99919.59;4996715;28;98546;-55
2023/12/26 02:53:15;;;;;;;2.40;0.70;;;;;;;10.09;68.78;99922.84;4999651;28;97263;-55
2023/12/26 02:55:41;;;;;;;1.17;0.50;;;;;;;10.06;68.78;99932.97;4997275;28;97661;-55
2023/12/26 02:58:06;;;;;;;0.80;0.50;;;;;;;10.04;68.82;99932.75;4997798;28;97971;-55
2023/12/26 03:00:32;;;;;;;0.60;0.47;;;;;;;10.03;68.86;99943.06;4996854;28;97611;-55
2023/12/26 03:02:57;;;;;;;2.70;0.50;;;;;;;10.03;68.83;99925.75;4995684;28;96967;-55
2023/12/26 03:05:23;;;;;;;0.60;0.60;;;;;;;10.00;68.88;99924.03;4995975;28;97113;-55
2023/12/26 03:07:49;;;;;;;1.03;0.40;;;;;;;10.01;68.83;99920.00;4998339;28;98611;-55
2023/12/26 03:10:15;;;;;;;1.27;0.33;;;;;;;10.01;68.83;99925.53;4996039;28;97112;-55
2023/12/26 03:12:41;;;;;;;2.10;0.43;;;;;;;10.00;68.90;99919.25;4996902;28;96880;-55
2023/12/26 03:15:07;;;;;;;1.27;0.40;;;;;;;10.01;68.93;99909.69;4998410;28;97230;-55
2023/12/26 03:17:33;;;;;;;0.70;0.30;;;;;;;10.01;68.81;99920.00;4995735;28;97350;-55
2023/12/26 03:19:58;;;;;;;1.20;0.50;;;;;;;10.00;68.73;99924.78;4999251;28;97185;-55
2023/12/26 03:22:24;;;;;;;0.60;0.40;;;;;;;10.01;68.89;99917.97;4999255;28;97112;-55
2023/12/26 03:24:49;;;;;;;0.50;0.30;;;;;;;10.04;68.97;99924.47;4995521;28;97052;-55
2023/12/26 03:27:14;;;;;;;0.50;0.30;;;;;;;10.04;68.80;99936.25;4995746;28;97150;-55
2023/12/26 03:29:40;;;;;;;0.50;0.30;;;;;;;10.03;68.58;99932.00;4996563;28;97951;-55
2023/12/26 03:32:08;;;;;;;1.33;0.50;;;;;;;10.01;68.57;99926.28;4997180;28;97220;-55
2023/12/26 03:34:34;;;;;;;0.50;0.30;;;;;;;9.97;68.73;99925.84;5000012;28;96724;-55
2023/12/26 03:36:59;;;;;;;0.50;0.37;;;;;;;9.95;68.93;99916.59;4996575;28;97744;-55
2023/12/26 03:39:24;;;;;;;0.50;0.30;;;;;;;9.94;68.98;99920.63;4993954;28;97115;-55
2023/12/26 03:41:50;;;;;;;0.60;0.40;;;;;;;9.92;69.03;99920.41;4995804;28;96949;-55
2023/12/26 03:44:16;;;;;;;0.60;0.40;;;;;;;9.92;68.87;99925.94;4993976;28;96666;-55
2023/12/26 03:46:42;;;;;;;1.27;0.40;;;;;;;9.90;68.87;99929.22;4998468;28;96739;-55
2023/12/26 03:49:07;;;;;;;2.50;0.33;;;;;;;9.87;68.83;99935.81;5001825;28;97313;-55
2023/12/26 03:51:32;;;;;;;0.50;0.30;;;;;;;9.84;68.79;99947.94;4993014;28;97199;-55
2023/12/26 03:53:58;;;;;;;0.50;0.30;;;;;;;9.86;68.89;99955.69;4996212;28;97401;-55
2023/12/26 03:56:29;;;;;;;0.60;0.40;;;;;;;9.85;68.85;99959.72;4995842;28;96686;-55
2023/12/26 03:58:54;;;;;;;0.50;0.30;;;;;;;9.82;68.71;99960.78;4995298;28;97242;-56
2023/12/26 04:01:20;;;;;;;0.50;0.30;;;;;;;9.77;68.89;99964.38;4994793;28;97392;-55
2023/12/26 04:03:46;;;;;;;0.50;0.40;;;;;;;9.71;68.87;99960.97;4995466;28;96842;-55
2023/12/26 04:06:11;;;;;;;0.60;0.30;;;;;;;9.68;69.00;99957.22;4994192;28;101379;-55
2023/12/26 04:08:37;;;;;;;1.77;0.30;;;;;;;9.68;69.08;99951.72;4993509;28;97680;-55
2023/12/26 04:11:02;;;;;;;2.20;0.40;;;;;;;9.68;68.94;99962.75;4997059;28;97166;-55
2023/12/26 04:13:28;;;;;;;0.60;0.30;;;;;;;9.64;68.92;99967.84;4993448;28;97121;-55
2023/12/26 04:15:53;;;;;;;0.53;0.40;;;;;;;9.64;68.92;99970.59;4994269;28;97117;-55
2023/12/26 04:18:19;;;;;;;0.60;0.30;;;;;;;9.64;68.94;99981.66;4998046;28;97025;-55
2023/12/26 04:20:44;;;;;;;0.50;0.30;;;;;;;9.60;68.97;99983.22;4992352;28;96919;-55
2023/12/26 04:23:10;;;;;;;1.23;0.40;;;;;;;9.56;68.87;99983.50;4996318;28;97056;-55
2023/12/26 04:25:35;;;;;;;0.90;0.33;;;;;;;9.53;68.87;99981.78;4995372;28;97760;-55
2023/12/26 04:28:01;;;;;;;0.50;0.30;;;;;;;9.54;68.92;99991.56;4995449;28;97607;-55
2023/12/26 04:30:26;;;;;;;0.60;0.40;;;;;;;9.54;68.90;99988.78;4996515;28;97161;-55
2023/12/26 04:32:51;;;;;;;5.60;0.50;;;;;;;9.52;68.91;99985.81;4997430;28;97424;-55
2023/12/26 04:35:17;;;;;;;0.50;0.30;;;;;;;9.53;68.81;99984.56;4998699;28;97560;-55
2023/12/26 04:37:42;;;;;;;0.60;0.40;;;;;;;9.53;68.79;99995.59;4994922;28;97290;-55
2023/12/26 04:40:08;;;;;;;0.60;0.40;;;;;;;9.53;68.76;99994.84;4996061;28;96991;-55
2023/12/26 04:42:34;;;;;;;0.50;0.30;;;;;;;9.54;68.82;99990.84;4996448;28;96885;-55
2023/12/26 04:44:59;;;;;;;0.50;0.30;;;;;;;9.51;68.87;100003.66;4994898;28;97458;-55
2023/12/26 04:47:24;;;;;;;0.50;0.40;;;;;;;9.47;68.86;100008.75;4997043;28;97739;-55
2023/12/26 04:49:50;;;;;;;0.80;0.30;;;;;;;9.45;68.90;100016.81;4995853;28;97279;-55
2023/12/26 04:52:16;;;;;;;0.50;0.40;;;;;;;9.46;68.81;100018.28;4996985;28;97254;-55
2023/12/26 04:54:41;;;;;;;0.70;0.30;;;;;;;9.44;68.91;100029.13;4995922;28;96841;-55
2023/12/26 04:57:07;;;;;;;0.60;0.40;;;;;;;9.44;68.80;100028.34;4993706;28;97616;-55
2023/12/26 04:59:37;;;;;;;0.70;0.30;;;;;;;9.40;68.82;100036.94;4994045;28;96814;-55
2023/12/26 05:02:03;;;;;;;1.17;0.33;;;;;;;9.39;68.79;100046.50;4997750;28;97066;-55
2023/12/26 05:04:28;;;;;;;1.87;0.40;;;;;;;9.36;69.01;100033.75;4994845;28;97395;-55
2023/12/26 05:06:54;;;;;;;1.17;0.40;;;;;;;9.33;68.93;100026.50;4996536;28;97123;-55
2023/12/26 05:09:19;;;;;;;2.13;0.40;;;;;;;9.31;68.88;100026.28;4996927;28;97505;-55
2023/12/26 05:11:44;;;;;;;1.13;0.43;;;;;;;9.28;68.98;100030.84;4993028;28;97040;-55
2023/12/26 05:14:10;;;;;;;1.43;0.40;;;;;;;9.25;68.95;100033.91;4992784;28;96927;-55
2023/12/26 05:16:40;;;;;;;0.87;0.40;;;;;;;9.21;68.89;100033.44;4996060;28;98572;-55
2023/12/26 05:19:05;;;;;;;0.60;0.40;;;;;;;9.15;68.79;100047.31;4997081;28;96648;-55
2023/12/26 05:21:31;;;;;;;1.53;0.50;;;;;;;9.12;68.99;100055.91;4996273;28;97060;-55
2023/12/26 05:23:56;;;;;;;0.80;0.50;;;;;;;9.09;68.90;100059.69;4996622;28;96923;-55
2023/12/26 05:26:22;;;;;;;3.83;0.60;;;;;;;9.06;68.88;100063.47;4997775;28;97530;-55
2023/12/26 05:28:47;;;;;;;1.63;0.50;;;;;;;9.00;69.00;100068.31;4995175;28;98393;-55
2023/12/26 05:31:13;;;;;;;2.40;1.10;;;;;;;8.97;68.78;100069.38;4995176;28;97365;-55
2023/12/26 05:33:38;;;;;;;2.20;0.73;;;;;;;8.95;69.12;100080.19;4993779;28;97663;-55
2023/12/26 05:36:04;;;;;;;2.40;0.50;;;;;;;8.92;68.91;100086.72;4996007;28;97289;-55
2023/12/26 05:38:30;;;;;;;1.33;0.60;;;;;;;8.90;68.96;100097.53;4995967;28;97492;-55
2023/12/26 05:40:55;;;;;;;4.93;0.80;;;;;;;8.90;68.88;100094.78;4994870;28;97294;-55
2023/12/26 05:43:21;;;;;;;1.10;0.83;;;;;;;8.91;68.80;100099.00;4995427;28;97337;-55
2023/12/26 05:45:46;;;;;;;3.40;1.43;;;;;;;8.93;69.05;100104.75;4993608;28;97407;-55
2023/12/26 05:48:13;;;;;;;9.33;4.47;;;;;;;8.95;69.09;100113.28;4997748;28;97276;-55
2023/12/26 05:50:39;;;;;;;7.00;3.70;;;;;;;8.95;68.66;100119.53;4993729;28;96771;-55
2023/12/26 05:53:04;;;;;;;3.67;3.33;;;;;;;8.94;68.63;100123.56;4996458;28;98563;-55
2023/12/26 05:55:29;;;;;;;2.87;2.67;;;;;;;8.90;68.97;100112.06;4996036;28;97260;-55
2023/12/26 05:57:55;;;;;;;3.33;1.90;;;;;;;8.86;68.66;100119.16;4992945;28;97137;-55
2023/12/26 06:00:20;;;;;;;3.37;1.50;;;;;;;8.85;68.47;100115.63;4995416;28;97287;-56
2023/12/26 06:02:46;;;;;;;3.80;1.13;;;;;;;8.83;68.63;100136.72;4995987;28;97749;-55
2023/12/26 06:05:11;;;;;;;2.10;1.10;;;;;;;8.81;68.71;100130.97;4990584;28;98440;-56
2023/12/26 06:07:37;;;;;;;1.43;0.73;;;;;;;8.79;68.59;100142.53;4994613;28;97263;-55
2023/12/26 06:10:04;;;;;;;1.47;0.70;;;;;;;8.75;68.61;100144.06;4996811;28;97317;-56
2023/12/26 06:12:30;;;;;;;3.23;0.93;;;;;;;8.76;68.69;100145.56;4993450;28;98411;-55
2023/12/26 06:14:55;;;;;;;3.50;0.93;;;;;;;8.76;68.64;100156.59;4992990;28;97163;-55
2023/12/26 06:17:22;;;;;;;2.87;1.00;;;;;;;8.78;68.71;100159.56;4994274;28;97208;-55
2023/12/26 06:19:48;;;;;;;1.37;0.60;;;;;;;8.79;68.68;100164.59;4991706;28;97171;-55
2023/12/26 06:22:13;;;;;;;4.53;0.50;;;;;;;8.78;68.71;100168.59;4996235;28;97357;-55
2023/12/26 06:24:39;;;;;;;2.20;0.70;;;;;;;8.79;68.56;100183.91;4994013;28;97413;-55
2023/12/26 06:27:05;;;;;;;2.00;0.73;;;;;;;8.80;68.51;100193.66;4995651;28;96751;-55
2023/12/26 06:29:30;;;;;;;3.27;1.27;;;;;;;8.77;68.67;100194.69;4993817;28;96983;-55
2023/12/26 06:31:56;;;;;;;2.00;0.60;;;;;;;8.73;68.70;100188.69;4993570;28;97536;-54
2023/12/26 06:34:21;;;;;;;2.33;0.90;;;;;;;8.74;68.73;100197.72;4994150;28;97496;-55
2023/12/26 06:36:46;;;;;;;1.63;0.90;;;;;;;8.73;68.66;100194.22;4993574;28;97639;-55
2023/12/26 06:39:12;;;;;;;3.60;0.90;;;;;;;8.68;68.59;100200.53;4995976;28;97523;-55
2023/12/26 06:41:37;;;;;;;2.70;1.13;;;;;;;8.66;68.42;100200.31;4990188;28;97438;-55
2023/12/26 06:44:03;;;;;;;1.60;0.60;;;;;;;8.58;68.21;100201.38;4994700;28;97236;-54
2023/12/26 06:46:28;;;;;;;0.80;0.70;;;;;;;8.52;68.23;100202.16;4995139;28;96994;-55
2023/12/26 06:48:54;;;;;;;1.80;0.80;;;;;;;8.43;68.23;100221.78;4994528;28;97252;-54
2023/12/26 06:51:20;;;;;;;3.57;1.03;;;;;;;8.35;68.28;100212.56;4995446;28;97879;-55
2023/12/26 06:53:47;;;;;;;2.80;1.13;;;;;;;8.33;68.43;100223.34;4996558;28;97120;-55
2023/12/26 06:56:12;;;;;;;1.17;0.50;;;;;;;8.30;68.03;100235.41;4993911;28;96935;-55
2023/12/26 06:58:37;;;;;;;4.53;1.20;;;;;;;8.28;67.95;100248.19;4991979;28;96899;-54
2023/12/26 07:01:07;;;;;;;5.80;1.37;;;;;;;8.25;67.88;100258.22;4994034;28;100859;-55
2023/12/26 07:03:33;;;;;;;1.10;1.00;;;;;;;8.20;67.87;100269.28;4991993;28;96712;-54
2023/12/26 07:05:58;;;;;;;5.20;1.10;;;;;;;8.16;67.82;100275.03;4996499;28;97065;-54
2023/12/26 07:08:23;;;;;;;3.10;0.70;;;;;;;8.12;67.78;100271.78;4995112;28;97656;-54
2023/12/26 07:10:49;;;;;;;2.37;0.93;;;;;;;8.08;67.65;100285.06;4993984;28;98427;-54
2023/12/26 07:13:15;;;;;;;4.33;1.30;;;;;;;8.07;67.69;100288.34;4993789;28;97328;-54
2023/12/26 07:15:42;;;;;;;2.77;1.20;;;;;;;8.05;67.60;100297.13;4995792;28;97178;-55
2023/12/26 07:18:08;;;;;;;4.07;1.60;;;;;;;8.04;67.69;100300.38;4991930;28;96757;-54
2023/12/26 07:20:34;;;;;;;8.87;1.33;;;;;;;8.07;67.49;100313.91;4994358;28;96865;-54
2023/12/26 07:23:00;;;;;;;3.23;1.13;;;;;;;8.08;67.36;100317.38;4993993;28;100319;-55
2023/12/26 07:25:27;;;;;;;7.37;1.30;;;;;;;8.10;67.39;100321.13;4993432;28;97026;-54
2023/12/26 07:27:52;;;;;;;4.13;1.30;;;;;;;8.08;67.27;100328.41;4999179;28;97685;-54
2023/12/26 07:30:18;;;;;;;3.80;1.27;;;;;;;8.05;67.31;100341.22;4997501;28;97964;-54
2023/12/26 07:32:43;;;;;;;4.50;1.20;;;;;;;8.06;67.28;100348.19;4996317;28;97143;-55
2023/12/26 07:35:09;;;;;;;7.37;1.33;;;;;;;8.07;67.29;100352.47;4997095;28;97063;-54
2023/12/26 07:37:34;;;;;;;4.63;0.80;;;;;;;8.07;67.14;100357.22;4996680;28;97533;-54
2023/12/26 07:40:00;;;;;;;7.50;1.37;;;;;;;8.07;67.01;100363.50;4996396;28;96973;-55
2023/12/26 07:42:26;;;;;;;6.83;1.00;;;;;;;8.08;67.18;100364.97;4997652;28;98580;-54
2023/12/26 07:44:51;;;;;;;5.40;1.50;;;;;;;8.11;66.94;100374.25;4998800;28;97051;-54
2023/12/26 07:47:16;;;;;;;5.80;1.53;;;;;;;8.12;66.85;100378.50;4998161;28;96833;-54
2023/12/26 07:49:42;;;;;;;7.53;1.60;;;;;;;8.11;66.81;100377.00;4998584;28;98203;-54
2023/12/26 07:52:07;;;;;;;5.17;1.10;;;;;;;8.07;66.65;100377.25;4997083;28;101434;-55
2023/12/26 07:54:33;;;;;;;5.07;1.20;;;;;;;8.04;66.66;100375.50;4996348;28;102993;-55
2023/12/26 07:56:58;;;;;;;3.70;1.17;;;;;;;7.99;66.55;100379.03;4997082;28;98102;-55
2023/12/26 07:59:24;;;;;;;5.77;1.30;;;;;;;7.97;66.63;100394.53;4996460;28;97104;-54
2023/12/26 08:01:50;;;;;;;5.80;1.00;;;;;;;7.97;66.66;100405.56;4993052;28;97330;-55
2023/12/26 08:04:15;;;;;;;5.20;1.40;;;;;;;7.93;66.44;100407.84;4997596;28;97099;-55
2023/12/26 08:06:41;;;;;;;7.40;1.63;;;;;;;7.93;66.51;100414.09;4996867;28;97117;-54
2023/12/26 08:09:06;;;;;;;5.00;1.70;;;;;;;7.95;66.52;100422.59;4995647;28;97094;-54
2023/12/26 08:11:32;;;;;;;2.93;1.27;;;;;;;7.94;66.43;100429.38;4994087;28;97167;-54
2023/12/26 08:13:57;;;;;;;6.37;1.43;;;;;;;7.94;66.45;100426.63;4998125;28;96735;-54
2023/12/26 08:16:23;;;;;;;2.17;1.20;;;;;;;7.96;66.30;100439.91;4997651;28;96759;-54
2023/12/26 08:18:48;;;;;;;5.90;1.23;;;;;;;7.95;66.39;100446.63;4994852;28;98681;-54
2023/12/26 08:21:13;;;;;;;2.10;0.70;;;;;;;7.94;66.59;100443.16;4999724;28;97471;-54
2023/12/26 08:23:39;;;;;;;2.63;0.60;;;;;;;7.97;66.34;100453.16;4996912;28;97445;-54
2023/12/26 08:26:07;;;;;;;1.63;0.90;;;;;;;7.97;66.45;100455.91;4999986;28;97123;-54
2023/12/26 08:28:33;;;;;;;4.93;1.00;;;;;;;8.01;66.50;100456.41;4997162;28;97829;-54
2023/12/26 08:30:58;;;;;;;5.77;0.67;;;;;;;8.06;66.62;100460.41;4999606;28;97341;-54
2023/12/26 08:33:24;;;;;;;4.63;0.93;;;;;;;8.10;66.41;100461.66;4999780;28;96961;-54
2023/12/26 08:35:50;;;;;;;2.93;1.30;;;;;;;8.15;66.38;100465.66;4999706;28;97435;-54
2023/12/26 08:38:15;;;;;;;1.67;0.90;;;;;;;8.17;66.21;100458.41;4997307;28;97328;-54
2023/12/26 08:40:41;;;;;;;2.23;1.00;;;;;;;8.18;66.17;100464.69;4994247;28;98640;-54
2023/12/26 08:43:07;;;;;;;4.90;1.20;;;;;;;8.20;66.18;100476.72;4996440;28;96653;-54
2023/12/26 08:45:34;;;;;;;6.17;1.60;;;;;;;8.18;66.06;100486.72;4999294;28;96890;-54
2023/12/26 08:48:00;;;;;;;4.40;1.30;;;;;;;8.21;65.99;100485.69;4993754;28;98668;-54
2023/12/26 08:50:26;;;;;;;2.97;0.70;;;;;;;8.21;66.17;100491.97;4994454;28;97418;-54
2023/12/26 08:52:51;;;;;;;3.20;0.77;;;;;;;8.21;66.04;100493.97;4995672;28;97026;-54
2023/12/26 08:55:16;;;;;;;3.70;1.03;;;;;;;8.20;66.01;100484.22;4995982;28;97361;-54
2023/12/26 08:57:42;;;;;;;3.03;1.10;;;;;;;8.22;66.11;100496.25;4997260;28;97748;-54
2023/12/26 09:00:09;;;;;;;5.43;0.87;;;;;;;8.22;65.95;100501.75;4994091;28;98102;-54
2023/12/26 09:02:35;;;;;;;2.20;1.00;;;;;;;8.22;65.95;100507.25;4997143;28;97007;-54
2023/12/26 09:05:02;;;;;;;2.43;1.07;;;;;;;8.23;65.91;100508.75;4996565;28;96854;-54
2023/12/26 09:07:29;;;;;;;4.40;1.13;;;;;;;8.27;66.08;100506.50;4993515;28;97758;-54
2023/12/26 09:09:54;;;;;;;3.73;1.37;;;;;;;8.28;66.00;100510.75;4995527;28;97025;-54
2023/12/26 09:12:20;;;;;;;3.00;0.70;;;;;;;8.30;65.83;100515.75;4994540;28;97544;-54
2023/12/26 09:14:46;;;;;;;4.53;0.83;;;;;;;8.30;65.75;100515.75;4995016;28;97205;-54
2023/12/26 09:17:11;;;;;;;2.43;1.20;;;;;;;8.32;65.61;100529.78;4995316;28;98794;-54
2023/12/26 09:19:36;;;;;;;1.80;1.30;;;;;;;8.34;65.77;100525.28;4996548;28;97245;-54
2023/12/26 09:22:02;;;;;;;1.10;0.67;;;;;;;8.36;65.62;100538.56;4996420;28;97143;-54
2023/12/26 09:24:27;;;;;;;2.23;1.00;;;;;;;8.38;65.62;100545.06;4997106;28;96752;-54
2023/12/26 09:26:53;;;;;;;1.57;0.63;;;;;;;8.40;65.59;100555.59;4993315;28;97248;-53
2023/12/26 09:29:18;;;;;;;2.70;0.73;;;;;;;8.38;65.46;100556.09;4993521;28;97245;-54
2023/12/26 09:31:44;;;;;;;1.03;0.87;;;;;;;8.35;65.52;100559.88;4996421;28;97064;-54
2023/12/26 09:34:10;;;;;;;4.13;1.07;;;;;;;8.35;65.54;100565.38;4994599;28;99143;-54
2023/12/26 09:36:35;;;;;;;2.80;0.70;;;;;;;8.37;65.59;100568.38;4993871;28;97340;-53
2023/12/26 09:39:01;;;;;;;1.03;0.70;;;;;;;8.40;65.70;100572.88;4995229;28;98401;-54
2023/12/26 09:41:26;;;;;;;3.50;1.10;;;;;;;8.39;65.47;100565.88;4996015;28;97054;-54
2023/12/26 09:43:53;;;;;;;3.00;1.00;;;;;;;8.43;65.63;100576.63;4997107;28;97086;-53
2023/12/26 09:46:19;;;;;;;3.03;1.20;;;;;;;8.42;65.47;100573.16;4994757;28;98503;-54
2023/12/26 09:48:45;;;;;;;2.43;1.03;;;;;;;8.44;65.37;100573.41;4992261;28;97826;-54
2023/12/26 09:51:22;;;;;;;4.97;0.93;;;;;;;8.46;65.12;100573.63;4996307;28;97160;-53
2023/12/26 09:53:55;;;;;;;6.90;1.07;;;;;;;8.46;65.25;100587.41;4996970;28;97280;-54
2023/12/26 09:56:21;;;;;;;3.40;1.27;;;;;;;8.46;65.29;100583.91;4995946;28;99103;-53
2023/12/26 09:58:48;;;;;;;1.60;0.80;;;;;;;8.47;65.24;100591.66;4992770;28;98334;-53
2023/12/26 10:01:14;;;;;;;3.30;0.73;;;;;;;8.49;65.27;100594.66;4996849;28;97411;-54
2023/12/26 10:03:41;;;;;;;5.20;1.20;;;;;;;8.48;65.06;100593.19;4998857;28;96751;-53
2023/12/26 10:06:08;;;;;;;6.20;1.50;;;;;;;8.51;65.17;100594.91;4995430;28;97968;-54
2023/12/26 10:08:33;;;;;;;5.07;0.80;;;;;;;8.53;65.05;100600.69;4996491;28;97267;-53
2023/12/26 10:10:59;;;;;;;4.20;1.13;;;;;;;8.58;65.04;100603.97;4994038;28;97829;-54
2023/12/26 10:13:24;;;;;;;5.33;1.00;;;;;;;8.62;64.84;100604.44;4995070;28;97259;-54
2023/12/26 10:15:50;;;;;;;5.07;0.87;;;;;;;8.67;64.88;100606.41;4996393;28;97292;-54
2023/12/26 10:18:16;;;;;;;4.00;1.17;;;;;;;8.68;64.86;100603.19;4993804;28;97372;-53
2023/12/26 10:20:42;;;;;;;2.17;1.13;;;;;;;8.71;64.62;100617.97;4996346;28;97324;-54
2023/12/26 10:23:08;;;;;;;4.70;1.03;;;;;;;8.72;64.67;100614.69;4992126;28;96908;-53
2023/12/26 10:25:33;;;;;;;6.93;0.97;;;;;;;8.74;64.45;100619.72;4994018;28;97631;-54
2023/12/26 10:28:00;;;;;;;2.30;1.07;;;;;;;8.74;64.51;100631.50;4987510;28;96800;-53
2023/12/26 10:30:26;;;;;;;1.27;0.70;;;;;;;8.73;64.48;100618.94;4988902;28;97255;-53
2023/12/26 10:33:02;;;;;;;8.47;0.93;;;;;;;8.80;63.94;100623.97;4996447;28;96956;-54
2023/12/26 10:35:27;;;;;;;3.50;1.10;;;;;;;8.82;64.25;100623.47;4987666;28;97478;-54
2023/12/26 10:37:53;;;;;;;3.87;0.80;;;;;;;8.85;64.33;100630.72;4994316;28;96815;-54
2023/12/26 10:40:19;;;;;;;2.43;1.30;;;;;;;8.89;63.89;100633.97;4992109;28;96707;-54
2023/12/26 10:42:49;;;;;;;3.83;0.90;;;;;;;8.92;63.84;100624.69;4989236;28;97715;-53
2023/12/26 10:45:18;;;;;;;1.00;0.77;;;;;;;8.96;63.95;100627.94;4986868;28;97554;-54
2023/12/26 10:47:47;;;;;;;3.10;0.90;;;;;;;8.95;63.92;100632.69;4990148;28;98441;-54
2023/12/26 10:50:16;;;;;;;4.13;1.10;;;;;;;8.94;63.85;100635.97;4995792;28;97367;-54
2023/12/26 10:53:06;;;;;;;5.50;0.93;;;;;;;8.99;63.71;100643.50;4998858;28;97039;-54
2023/12/26 10:55:33;;;;;;;10.90;1.47;;;;;;;9.01;63.83;100641.75;4995403;28;97231;-54
2023/12/26 10:58:19;;;;;;;7.70;1.40;;;;;;;9.03;62.20;100652.25;4991487;28;97407;-54
2023/12/26 13:52:23;;;;;;;4.10;1.50;;;;;;;9.30;61.62;100822.59;4988156;28;96797;-55
2023/12/26 13:55:07;;;;;;;7.27;1.80;;;;;;;9.24;61.75;100819.09;4992283;28;98116;-55
2023/12/26 13:57:32;;;;;;;4.73;1.20;;;;;;;9.18;61.77;100832.16;4990592;28;118061;-55
2023/12/26 13:59:59;;;;;;;3.13;1.90;;;;;;;9.14;61.86;100834.41;4988565;28;127061;-55
2023/12/26 14:02:25;;;;;;;9.13;1.70;;;;;;;9.12;62.12;100839.69;4988982;28;97125;-55
2023/12/26 14:04:50;;;;;;;4.00;1.43;;;;;;;9.04;61.77;100844.16;4993418;28;97067;-55
2023/12/26 14:07:19;;;;;;;9.17;1.80;;;;;;;8.99;62.15;100831.13;4990343;28;97220;-55
2023/12/26 14:09:44;;;;;;;5.03;1.57;;;;;;;9.01;61.99;100836.91;4990619;28;96934;-55
2023/12/26 14:12:10;;;;;;;5.73;1.80;;;;;;;9.02;62.00;100841.16;4992275;28;105621;-55
2023/12/26 14:14:35;;;;;;;3.70;1.33;;;;;;;9.02;61.82;100841.16;4991576;28;97058;-54
2023/12/26 14:17:00;;;;;;;3.53;1.23;;;;;;;9.03;61.85;100839.91;4990257;28;97102;-54
2023/12/26 14:19:26;;;;;;;5.50;1.90;;;;;;;9.04;61.67;100844.94;4987700;28;126479;-54